map of LPMT home
LPMT - Airport
Location
City:  Montijo, Lisboa, Portugal
Name:Montijo AB
Old (Alt.):Air Base Nr 6
ICAO:LPMT

Details
Type:Airport (Aerodrome, Airfield)
Use:Military, International (customs port of entry)
Latitude:3842'14"N (38.703861)
Longitude:902'09"W (-9.035915)
Datum:WGS 1984
Elevation:46 ft (14 m)
Variation:2.39W (WMM2015 magnetic declination)
0.12 annual change
Runways:2
Longest:8005 × 148 ft (2440 × 45 m), paved

Time
Time Zone:UTC+0 (DST+1)
Local Time:

Weather
METAR:LPMT 242300Z 36007KT CAVOK 20/12 Q1018
TAF:LPMT 242302Z 2500/2524 35008KT CAVOK PROB40
TEMPO 2502/2512 7000 -SHRA FEW030TCU PROB40
TEMPO 2509/2524 VRB15G25KT 4000 TSRA SCT040CB

Related Locations
Nearby:
Farthest:NPL: 12268 mi / 19743 km
New Plymouth, TKI, NZ

Find:

   beyond  
but within

Other Information
Maps:
NOTAMs:
Links:
Sources:

  
flag of Portugal   

Airport Diagram

Airport diagram for LPMT

Larger airport diagram (OBSOLETE) from NGA

Sectional Chart

Flight Planning
at skyvector.com

Satellite Image

Google Maps Satellite view

 

Copyright © 2004-2017 Karl L. Swartz. All rights reserved.
The Great Circle Mapper name and logo are trademarks of the Great Circle Mapper.
All other trademarks mentioned herein belong to their respective owners.
Please see credits for attibutions and further copyright information.

  Follow gcmap on Facebook Follow gcmap on Twitter Follow gcmap on Google+ GCmap on LinkedIn

hCard Microformat

Geo Microformat